sensor_id;sensor_type;location;lat;lon;timestamp;temperature;humidity
53802;DHT22;39709;53.334;6.534;2023-04-06T00:01:40;1.10;55.00
53802;DHT22;39709;53.334;6.534;2023-04-06T00:04:06;1.00;61.20
53802;DHT22;39709;53.334;6.534;2023-04-06T00:06:33;0.90;67.70
53802;DHT22;39709;53.334;6.534;2023-04-06T00:08:59;1.10;81.40
53802;DHT22;39709;53.334;6.534;2023-04-06T00:11:26;1.00;82.90
53802;DHT22;39709;53.334;6.534;2023-04-06T00:13:52;1.00;83.50
53802;DHT22;39709;53.334;6.534;2023-04-06T00:16:17;0.90;90.50
53802;DHT22;39709;53.334;6.534;2023-04-06T00:18:44;0.90;81.40
53802;DHT22;39709;53.334;6.534;2023-04-06T00:21:13;1.00;88.10
53802;DHT22;39709;53.334;6.534;2023-04-06T00:23:43;0.90;78.40
53802;DHT22;39709;53.334;6.534;2023-04-06T00:26:09;0.90;74.80
53802;DHT22;39709;53.334;6.534;2023-04-06T00:28:37;0.90;77.60
53802;DHT22;39709;53.334;6.534;2023-04-06T00:31:02;0.90;79.90
53802;DHT22;39709;53.334;6.534;2023-04-06T00:33:28;0.90;81.60
53802;DHT22;39709;53.334;6.534;2023-04-06T00:35:54;0.90;75.70
53802;DHT22;39709;53.334;6.534;2023-04-06T00:38:19;0.90;76.10
53802;DHT22;39709;53.334;6.534;2023-04-06T00:40:46;0.90;80.50
53802;DHT22;39709;53.334;6.534;2023-04-06T00:43:12;0.80;80.90
53802;DHT22;39709;53.334;6.534;2023-04-06T00:45:38;0.80;90.00
53802;DHT22;39709;53.334;6.534;2023-04-06T00:48:05;0.70;88.20
53802;DHT22;39709;53.334;6.534;2023-04-06T00:50:31;0.70;93.50
53802;DHT22;39709;53.334;6.534;2023-04-06T00:52:58;0.70;93.00
53802;DHT22;39709;53.334;6.534;2023-04-06T00:55:25;0.70;92.70
53802;DHT22;39709;53.334;6.534;2023-04-06T00:57:51;0.80;93.40
53802;DHT22;39709;53.334;6.534;2023-04-06T01:00:17;0.70;96.30
53802;DHT22;39709;53.334;6.534;2023-04-06T01:02:43;0.60;93.80
53802;DHT22;39709;53.334;6.534;2023-04-06T01:05:10;0.60;97.30
53802;DHT22;39709;53.334;6.534;2023-04-06T01:07:36;0.60;98.20
53802;DHT22;39709;53.334;6.534;2023-04-06T01:10:02;0.50;97.50
53802;DHT22;39709;53.334;6.534;2023-04-06T01:12:28;0.50;99.90
53802;DHT22;39709;53.334;6.534;2023-04-06T01:14:54;0.50;99.90
53802;DHT22;39709;53.334;6.534;2023-04-06T01:17:20;0.50;99.90
53802;DHT22;39709;53.334;6.534;2023-04-06T01:19:45;0.50;99.90
53802;DHT22;39709;53.334;6.534;2023-04-06T01:22:18;0.50;99.00
53802;DHT22;39709;53.334;6.534;2023-04-06T01:24:44;0.50;97.10
53802;DHT22;39709;53.334;6.534;2023-04-06T01:27:10;0.50;96.10
53802;DHT22;39709;53.334;6.534;2023-04-06T01:29:36;0.50;96.40
53802;DHT22;39709;53.334;6.534;2023-04-06T01:32:02;0.50;96.30
53802;DHT22;39709;53.334;6.534;2023-04-06T01:34:28;0.40;95.20
53802;DHT22;39709;53.334;6.534;2023-04-06T01:36:54;0.50;99.80
53802;DHT22;39709;53.334;6.534;2023-04-06T01:39:20;0.50;99.30
53802;DHT22;39709;53.334;6.534;2023-04-06T01:41:46;0.40;98.40
53802;DHT22;39709;53.334;6.534;2023-04-06T01:44:15;0.40;98.50
53802;DHT22;39709;53.334;6.534;2023-04-06T01:46:41;0.30;98.60
53802;DHT22;39709;53.334;6.534;2023-04-06T01:49:07;0.40;98.90
53802;DHT22;39709;53.334;6.534;2023-04-06T01:51:33;0.40;99.90
53802;DHT22;39709;53.334;6.534;2023-04-06T01:53:58;0.50;99.90
53802;DHT22;39709;53.334;6.534;2023-04-06T01:56:24;0.30;99.90
53802;DHT22;39709;53.334;6.534;2023-04-06T01:58:50;0.30;99.90
53802;DHT22;39709;53.334;6.534;2023-04-06T02:01:16;0.20;99.90
53802;DHT22;39709;53.334;6.534;2023-04-06T02:03:42;0.20;99.90
53802;DHT22;39709;53.334;6.534;2023-04-06T02:06:08;0.20;99.90
53802;DHT22;39709;53.334;6.534;2023-04-06T02:08:33;0.20;99.90
53802;DHT22;39709;53.334;6.534;2023-04-06T02:10:59;0.20;99.90
53802;DHT22;39709;53.334;6.534;2023-04-06T02:13:25;0.10;99.90
53802;DHT22;39709;53.334;6.534;2023-04-06T02:15:51;0.10;99.90
53802;DHT22;39709;53.334;6.534;2023-04-06T02:18:17;0.10;99.90
53802;DHT22;39709;53.334;6.534;2023-04-06T02:20:44;0.10;99.90
53802;DHT22;39709;53.334;6.534;2023-04-06T02:23:10;0.10;99.90
53802;DHT22;39709;53.334;6.534;2023-04-06T02:25:36;0.10;99.90
53802;DHT22;39709;53.334;6.534;2023-04-06T02:28:02;0.10;99.90
53802;DHT22;39709;53.334;6.534;2023-04-06T02:30:28;0.10;99.90
53802;DHT22;39709;53.334;6.534;2023-04-06T02:32:55;0.20;99.90
53802;DHT22;39709;53.334;6.534;2023-04-06T02:35:21;0.10;99.90
53802;DHT22;39709;53.334;6.534;2023-04-06T02:37:46;0.00;99.90
53802;DHT22;39709;53.334;6.534;2023-04-06T02:40:13;0.00;99.90
53802;DHT22;39709;53.334;6.534;2023-04-06T02:42:39;0.00;99.90
53802;DHT22;39709;53.334;6.534;2023-04-06T02:45:05;-0.10;99.90
53802;DHT22;39709;53.334;6.534;2023-04-06T02:47:31;0.00;99.90
53802;DHT22;39709;53.334;6.534;2023-04-06T02:49:57;0.00;99.90
53802;DHT22;39709;53.334;6.534;2023-04-06T02:52:22;-0.10;99.90
53802;DHT22;39709;53.334;6.534;2023-04-06T02:54:48;-0.10;99.90
53802;DHT22;39709;53.334;6.534;2023-04-06T02:57:14;-0.10;99.90
53802;DHT22;39709;53.334;6.534;2023-04-06T02:59:39;-0.20;99.90
53802;DHT22;39709;53.334;6.534;2023-04-06T03:02:05;0.00;99.90
53802;DHT22;39709;53.334;6.534;2023-04-06T03:04:31;-0.20;99.90
53802;DHT22;39709;53.334;6.534;2023-04-06T03:06:56;-0.30;99.90
53802;DHT22;39709;53.334;6.534;2023-04-06T03:09:22;-0.20;99.90
53802;DHT22;39709;53.334;6.534;2023-04-06T03:11:48;-0.20;99.90
53802;DHT22;39709;53.334;6.534;2023-04-06T03:14:13;-0.10;99.90
53802;DHT22;39709;53.334;6.534;2023-04-06T03:16:40;-0.20;99.90
53802;DHT22;39709;53.334;6.534;2023-04-06T03:19:05;-0.20;99.90
53802;DHT22;39709;53.334;6.534;2023-04-06T03:21:31;-0.30;99.90
53802;DHT22;39709;53.334;6.534;2023-04-06T03:23:57;-0.40;99.90
53802;DHT22;39709;53.334;6.534;2023-04-06T03:26:22;-0.40;99.90
53802;DHT22;39709;53.334;6.534;2023-04-06T03:28:48;-0.40;99.90
53802;DHT22;39709;53.334;6.534;2023-04-06T03:31:14;-0.40;99.90
53802;DHT22;39709;53.334;6.534;2023-04-06T03:33:39;-0.50;99.90
53802;DHT22;39709;53.334;6.534;2023-04-06T03:36:05;-0.40;99.90
53802;DHT22;39709;53.334;6.534;2023-04-06T03:38:32;-0.50;99.90
53802;DHT22;39709;53.334;6.534;2023-04-06T03:40:58;-0.50;99.90
53802;DHT22;39709;53.334;6.534;2023-04-06T03:43:23;-0.50;99.90
53802;DHT22;39709;53.334;6.534;2023-04-06T03:45:49;-0.50;99.90
53802;DHT22;39709;53.334;6.534;2023-04-06T03:48:15;-0.40;99.90
53802;DHT22;39709;53.334;6.534;2023-04-06T03:50:40;-0.50;99.90
53802;DHT22;39709;53.334;6.534;2023-04-06T03:53:06;-0.50;99.90
53802;DHT22;39709;53.334;6.534;2023-04-06T03:55:32;-0.40;99.90
53802;DHT22;39709;53.334;6.534;2023-04-06T03:57:57;-0.40;99.90
53802;DHT22;39709;53.334;6.534;2023-04-06T04:00:24;-0.40;99.90
53802;DHT22;39709;53.334;6.534;2023-04-06T04:02:49;-0.50;99.90
53802;DHT22;39709;53.334;6.534;2023-04-06T04:05:16;-0.50;99.90
53802;DHT22;39709;53.334;6.534;2023-04-06T04:07:41;-0.50;99.90
53802;DHT22;39709;53.334;6.534;2023-04-06T04:10:07;-0.50;99.90
53802;DHT22;39709;53.334;6.534;2023-04-06T04:12:33;-0.50;99.90
53802;DHT22;39709;53.334;6.534;2023-04-06T04:14:59;-0.50;99.90
53802;DHT22;39709;53.334;6.534;2023-04-06T04:17:25;-0.50;99.90
53802;DHT22;39709;53.334;6.534;2023-04-06T04:19:51;-0.60;99.90
53802;DHT22;39709;53.334;6.534;2023-04-06T04:22:16;-0.60;99.90
53802;DHT22;39709;53.334;6.534;2023-04-06T04:24:42;-0.70;99.90
53802;DHT22;39709;53.334;6.534;2023-04-06T04:27:08;-0.70;99.90
53802;DHT22;39709;53.334;6.534;2023-04-06T04:29:34;-0.70;99.90
53802;DHT22;39709;53.334;6.534;2023-04-06T04:31:59;-0.60;99.90
53802;DHT22;39709;53.334;6.534;2023-04-06T04:34:25;-0.80;99.90
53802;DHT22;39709;53.334;6.534;2023-04-06T04:36:52;-0.70;99.90
53802;DHT22;39709;53.334;6.534;2023-04-06T04:39:18;-0.80;99.90
53802;DHT22;39709;53.334;6.534;2023-04-06T04:41:43;-0.60;99.90
53802;DHT22;39709;53.334;6.534;2023-04-06T04:44:09;-0.50;99.90
53802;DHT22;39709;53.334;6.534;2023-04-06T04:46:35;-0.90;99.90
53802;DHT22;39709;53.334;6.534;2023-04-06T04:49:01;-0.90;99.90
53802;DHT22;39709;53.334;6.534;2023-04-06T04:51:26;-1.00;99.90
53802;DHT22;39709;53.334;6.534;2023-04-06T04:53:52;-1.00;99.90
53802;DHT22;39709;53.334;6.534;2023-04-06T04:56:18;-0.90;99.90
53802;DHT22;39709;53.334;6.534;2023-04-06T04:58:44;-1.00;99.90
53802;DHT22;39709;53.334;6.534;2023-04-06T05:01:09;-0.90;99.90
53802;DHT22;39709;53.334;6.534;2023-04-06T05:03:36;-0.90;99.90
53802;DHT22;39709;53.334;6.534;2023-04-06T05:06:04;-0.80;99.90
53802;DHT22;39709;53.334;6.534;2023-04-06T05:08:30;-0.90;99.90
53802;DHT22;39709;53.334;6.534;2023-04-06T05:10:56;-0.90;99.90
53802;DHT22;39709;53.334;6.534;2023-04-06T05:13:22;-0.90;99.90
53802;DHT22;39709;53.334;6.534;2023-04-06T05:15:48;-0.80;99.90
53802;DHT22;39709;53.334;6.534;2023-04-06T05:18:14;-0.90;99.90
53802;DHT22;39709;53.334;6.534;2023-04-06T05:20:40;-0.80;99.90
53802;DHT22;39709;53.334;6.534;2023-04-06T05:23:05;-0.90;99.90
53802;DHT22;39709;53.334;6.534;2023-04-06T05:25:32;-0.70;99.90
53802;DHT22;39709;53.334;6.534;2023-04-06T05:27:58;-0.70;99.90
53802;DHT22;39709;53.334;6.534;2023-04-06T05:30:24;-0.80;99.90
53802;DHT22;39709;53.334;6.534;2023-04-06T05:32:50;-0.70;99.90
53802;DHT22;39709;53.334;6.534;2023-04-06T05:35:16;-0.70;99.90
53802;DHT22;39709;53.334;6.534;2023-04-06T05:37:43;-0.80;99.90
53802;DHT22;39709;53.334;6.534;2023-04-06T05:40:09;-0.70;99.90
53802;DHT22;39709;53.334;6.534;2023-04-06T05:42:41;-0.60;99.90
53802;DHT22;39709;53.334;6.534;2023-04-06T05:45:09;-0.60;99.90
53802;DHT22;39709;53.334;6.534;2023-04-06T05:47:36;-0.50;99.90
53802;DHT22;39709;53.334;6.534;2023-04-06T05:50:02;-0.50;99.90
53802;DHT22;39709;53.334;6.534;2023-04-06T05:52:28;-0.50;99.90
53802;DHT22;39709;53.334;6.534;2023-04-06T05:54:54;-0.40;99.90
53802;DHT22;39709;53.334;6.534;2023-04-06T05:57:19;-0.30;99.90
53802;DHT22;39709;53.334;6.534;2023-04-06T05:59:45;-0.30;99.90
53802;DHT22;39709;53.334;6.534;2023-04-06T06:02:11;-0.30;99.90
53802;DHT22;39709;53.334;6.534;2023-04-06T06:04:37;-0.20;99.90
53802;DHT22;39709;53.334;6.534;2023-04-06T06:07:02;-0.10;99.90
53802;DHT22;39709;53.334;6.534;2023-04-06T06:09:28;-0.10;99.90
53802;DHT22;39709;53.334;6.534;2023-04-06T06:11:54;0.00;99.90
53802;DHT22;39709;53.334;6.534;2023-04-06T06:14:20;0.10;99.70
53802;DHT22;39709;53.334;6.534;2023-04-06T06:16:47;0.10;99.90
53802;DHT22;39709;53.334;6.534;2023-04-06T06:19:13;0.20;96.80
53802;DHT22;39709;53.334;6.534;2023-04-06T06:21:39;0.30;95.30
53802;DHT22;39709;53.334;6.534;2023-04-06T06:24:05;0.30;95.00
53802;DHT22;39709;53.334;6.534;2023-04-06T06:26:31;0.40;92.80
53802;DHT22;39709;53.334;6.534;2023-04-06T06:28:57;0.50;86.10
53802;DHT22;39709;53.334;6.534;2023-04-06T06:31:22;0.60;84.70
53802;DHT22;39709;53.334;6.534;2023-04-06T06:33:48;0.70;81.30
53802;DHT22;39709;53.334;6.534;2023-04-06T06:36:18;0.80;82.10
53802;DHT22;39709;53.334;6.534;2023-04-06T06:38:44;0.90;71.10
53802;DHT22;39709;53.334;6.534;2023-04-06T06:41:10;1.00;61.40
53802;DHT22;39709;53.334;6.534;2023-04-06T06:43:36;1.10;46.40
53802;DHT22;39709;53.334;6.534;2023-04-06T06:46:02;1.20;39.10
53802;DHT22;39709;53.334;6.534;2023-04-06T06:48:28;1.30;41.50
53802;DHT22;39709;53.334;6.534;2023-04-06T06:50:54;1.40;40.10
53802;DHT22;39709;53.334;6.534;2023-04-06T06:53:20;1.50;26.40
53802;DHT22;39709;53.334;6.534;2023-04-06T06:55:46;1.50;21.50
53802;DHT22;39709;53.334;6.534;2023-04-06T06:58:11;1.60;26.80
53802;DHT22;39709;53.334;6.534;2023-04-06T07:00:37;1.80;19.50
53802;DHT22;39709;53.334;6.534;2023-04-06T07:03:03;1.90;11.10
53802;DHT22;39709;53.334;6.534;2023-04-06T07:05:29;2.00;1.00
53802;DHT22;39709;53.334;6.534;2023-04-06T07:07:55;2.20;1.00
53802;DHT22;39709;53.334;6.534;2023-04-06T07:10:21;2.30;1.00
53802;DHT22;39709;53.334;6.534;2023-04-06T07:12:47;2.50;1.00
53802;DHT22;39709;53.334;6.534;2023-04-06T07:15:13;2.60;1.00
53802;DHT22;39709;53.334;6.534;2023-04-06T07:17:39;2.80;1.00
53802;DHT22;39709;53.334;6.534;2023-04-06T07:20:06;2.90;1.00
53802;DHT22;39709;53.334;6.534;2023-04-06T07:22:32;3.00;1.00
53802;DHT22;39709;53.334;6.534;2023-04-06T07:24:58;3.10;1.00
53802;DHT22;39709;53.334;6.534;2023-04-06T07:27:24;3.30;1.00
53802;DHT22;39709;53.334;6.534;2023-04-06T07:29:50;3.30;1.00
53802;DHT22;39709;53.334;6.534;2023-04-06T07:32:15;3.50;1.00
53802;DHT22;39709;53.334;6.534;2023-04-06T07:34:41;3.80;1.00
53802;DHT22;39709;53.334;6.534;2023-04-06T07:37:07;3.80;1.00
53802;DHT22;39709;53.334;6.534;2023-04-06T07:39:33;3.90;1.00
53802;DHT22;39709;53.334;6.534;2023-04-06T07:42:00;4.10;1.00
53802;DHT22;39709;53.334;6.534;2023-04-06T07:44:25;4.20;1.00
53802;DHT22;39709;53.334;6.534;2023-04-06T07:46:51;4.40;1.00
53802;DHT22;39709;53.334;6.534;2023-04-06T07:49:17;4.50;1.00
53802;DHT22;39709;53.334;6.534;2023-04-06T07:51:43;4.60;1.00
53802;DHT22;39709;53.334;6.534;2023-04-06T07:54:08;4.70;1.00
53802;DHT22;39709;53.334;6.534;2023-04-06T07:56:34;4.90;1.00
53802;DHT22;39709;53.334;6.534;2023-04-06T07:59:00;5.00;1.00
53802;DHT22;39709;53.334;6.534;2023-04-06T08:01:27;5.10;1.00
53802;DHT22;39709;53.334;6.534;2023-04-06T08:03:52;5.20;1.00
53802;DHT22;39709;53.334;6.534;2023-04-06T08:06:19;5.40;1.00
53802;DHT22;39709;53.334;6.534;2023-04-06T08:08:45;5.60;1.00
53802;DHT22;39709;53.334;6.534;2023-04-06T08:11:11;5.70;1.00
53802;DHT22;39709;53.334;6.534;2023-04-06T08:13:36;5.80;1.00
53802;DHT22;39709;53.334;6.534;2023-04-06T08:16:02;6.00;1.00
53802;DHT22;39709;53.334;6.534;2023-04-06T08:18:28;6.10;1.00
53802;DHT22;39709;53.334;6.534;2023-04-06T08:20:55;6.20;1.00
53802;DHT22;39709;53.334;6.534;2023-04-06T08:23:21;6.30;99.90
53802;DHT22;39709;53.334;6.534;2023-04-06T08:25:47;6.50;99.90
53802;DHT22;39709;53.334;6.534;2023-04-06T08:28:12;6.60;99.90
53802;DHT22;39709;53.334;6.534;2023-04-06T08:30:42;6.90;1.00
53802;DHT22;39709;53.334;6.534;2023-04-06T08:33:09;7.00;1.00
53802;DHT22;39709;53.334;6.534;2023-04-06T08:35:34;7.10;99.90
53802;DHT22;39709;53.334;6.534;2023-04-06T08:38:00;7.30;1.00
53802;DHT22;39709;53.334;6.534;2023-04-06T08:40:27;7.20;99.90
53802;DHT22;39709;53.334;6.534;2023-04-06T08:42:55;7.40;1.00
53802;DHT22;39709;53.334;6.534;2023-04-06T08:45:22;7.40;99.90
53802;DHT22;39709;53.334;6.534;2023-04-06T08:47:51;7.60;99.90
53802;DHT22;39709;53.334;6.534;2023-04-06T08:50:18;7.80;1.00
53802;DHT22;39709;53.334;6.534;2023-04-06T08:52:46;7.90;99.90
53802;DHT22;39709;53.334;6.534;2023-04-06T08:55:12;8.10;99.90
53802;DHT22;39709;53.334;6.534;2023-04-06T08:57:38;8.20;99.90
53802;DHT22;39709;53.334;6.534;2023-04-06T09:00:06;8.30;99.90
53802;DHT22;39709;53.334;6.534;2023-04-06T09:02:33;8.40;99.90
53802;DHT22;39709;53.334;6.534;2023-04-06T09:05:00;8.60;99.90
53802;DHT22;39709;53.334;6.534;2023-04-06T09:07:26;8.80;1.00
53802;DHT22;39709;53.334;6.534;2023-04-06T09:09:52;8.90;1.00
53802;DHT22;39709;53.334;6.534;2023-04-06T09:12:30;9.10;99.90
53802;DHT22;39709;53.334;6.534;2023-04-06T09:14:56;9.20;99.90
53802;DHT22;39709;53.334;6.534;2023-04-06T09:17:30;9.30;1.00
53802;DHT22;39709;53.334;6.534;2023-04-06T09:19:58;9.40;1.00
53802;DHT22;39709;53.334;6.534;2023-04-06T09:22:24;9.60;1.00
53802;DHT22;39709;53.334;6.534;2023-04-06T09:24:53;9.60;99.90
53802;DHT22;39709;53.334;6.534;2023-04-06T09:27:36;9.90;1.00
53802;DHT22;39709;53.334;6.534;2023-04-06T09:30:12;10.10;1.00
53802;DHT22;39709;53.334;6.534;2023-04-06T09:32:50;10.10;99.90
53802;DHT22;39709;53.334;6.534;2023-04-06T09:35:16;10.20;99.90
53802;DHT22;39709;53.334;6.534;2023-04-06T09:37:43;10.00;99.90
53802;DHT22;39709;53.334;6.534;2023-04-06T09:40:09;10.10;99.90
53802;DHT22;39709;53.334;6.534;2023-04-06T09:42:35;10.10;99.90
53802;DHT22;39709;53.334;6.534;2023-04-06T09:45:02;10.20;99.90
53802;DHT22;39709;53.334;6.534;2023-04-06T09:47:32;10.20;99.90
53802;DHT22;39709;53.334;6.534;2023-04-06T09:49:59;10.20;99.90
53802;DHT22;39709;53.334;6.534;2023-04-06T09:52:41;10.20;99.90
53802;DHT22;39709;53.334;6.534;2023-04-06T09:55:08;10.20;99.90
53802;DHT22;39709;53.334;6.534;2023-04-06T09:57:56;10.30;99.90
53802;DHT22;39709;53.334;6.534;2023-04-06T10:00:23;10.30;99.90
53802;DHT22;39709;53.334;6.534;2023-04-06T10:08:10;10.40;99.90
53802;DHT22;39709;53.334;6.534;2023-04-06T10:10:37;10.50;99.90
53802;DHT22;39709;53.334;6.534;2023-04-06T10:13:04;10.50;99.90
53802;DHT22;39709;53.334;6.534;2023-04-06T10:15:30;10.70;1.00
53802;DHT22;39709;53.334;6.534;2023-04-06T10:17:58;10.50;99.90
53802;DHT22;39709;53.334;6.534;2023-04-06T10:23:11;10.70;99.90
53802;DHT22;39709;53.334;6.534;2023-04-06T10:25:54;10.80;99.90
53802;DHT22;39709;53.334;6.534;2023-04-06T10:28:20;10.90;99.90
53802;DHT22;39709;53.334;6.534;2023-04-06T10:30:46;10.90;99.90
53802;DHT22;39709;53.334;6.534;2023-04-06T10:33:17;11.00;99.90
53802;DHT22;39709;53.334;6.534;2023-04-06T10:35:42;11.00;99.90
53802;DHT22;39709;53.334;6.534;2023-04-06T10:38:08;11.20;99.90
53802;DHT22;39709;53.334;6.534;2023-04-06T10:40:38;11.10;99.90
53802;DHT22;39709;53.334;6.534;2023-04-06T10:43:12;11.30;99.90
53802;DHT22;39709;53.334;6.534;2023-04-06T10:45:38;11.30;99.90
53802;DHT22;39709;53.334;6.534;2023-04-06T10:48:18;11.30;99.90
53802;DHT22;39709;53.334;6.534;2023-04-06T10:50:47;11.40;99.90
53802;DHT22;39709;53.334;6.534;2023-04-06T10:53:27;11.30;99.90
53802;DHT22;39709;53.334;6.534;2023-04-06T10:55:55;11.40;99.90
53802;DHT22;39709;53.334;6.534;2023-04-06T10:58:25;11.40;99.90
53802;DHT22;39709;53.334;6.534;2023-04-06T11:00:51;11.60;99.90
53802;DHT22;39709;53.334;6.534;2023-04-06T11:03:17;11.60;99.90
53802;DHT22;39709;53.334;6.534;2023-04-06T11:05:47;11.70;99.90
53802;DHT22;39709;53.334;6.534;2023-04-06T11:08:24;11.80;99.90
53802;DHT22;39709;53.334;6.534;2023-04-06T11:10:50;11.80;99.90
53802;DHT22;39709;53.334;6.534;2023-04-06T11:13:16;11.90;99.90
53802;DHT22;39709;53.334;6.534;2023-04-06T11:15:42;12.00;99.90
53802;DHT22;39709;53.334;6.534;2023-04-06T11:18:08;12.10;99.90
53802;DHT22;39709;53.334;6.534;2023-04-06T11:20:34;12.00;99.90
53802;DHT22;39709;53.334;6.534;2023-04-06T11:23:00;12.00;99.90
53802;DHT22;39709;53.334;6.534;2023-04-06T11:25:27;12.10;99.90
53802;DHT22;39709;53.334;6.534;2023-04-06T11:27:53;12.30;99.90
53802;DHT22;39709;53.334;6.534;2023-04-06T11:30:19;12.40;99.90
53802;DHT22;39709;53.334;6.534;2023-04-06T11:32:45;12.60;99.90
53802;DHT22;39709;53.334;6.534;2023-04-06T11:35:24;12.50;99.90
53802;DHT22;39709;53.334;6.534;2023-04-06T11:37:50;12.60;99.90
53802;DHT22;39709;53.334;6.534;2023-04-06T11:40:21;12.50;99.90
53802;DHT22;39709;53.334;6.534;2023-04-06T11:42:57;12.60;99.90
53802;DHT22;39709;53.334;6.534;2023-04-06T11:45:23;12.70;99.90
53802;DHT22;39709;53.334;6.534;2023-04-06T11:47:57;12.80;99.90
53802;DHT22;39709;53.334;6.534;2023-04-06T11:50:24;13.00;99.90
53802;DHT22;39709;53.334;6.534;2023-04-06T11:53:00;13.10;99.90
53802;DHT22;39709;53.334;6.534;2023-04-06T11:55:27;13.20;99.90
53802;DHT22;39709;53.334;6.534;2023-04-06T11:57:52;13.10;99.90
53802;DHT22;39709;53.334;6.534;2023-04-06T12:00:20;13.00;99.90
53802;DHT22;39709;53.334;6.534;2023-04-06T12:02:47;13.00;99.90
53802;DHT22;39709;53.334;6.534;2023-04-06T12:05:13;13.00;99.90
53802;DHT22;39709;53.334;6.534;2023-04-06T12:07:39;13.10;99.90
53802;DHT22;39709;53.334;6.534;2023-04-06T12:10:05;13.00;99.90
53802;DHT22;39709;53.334;6.534;2023-04-06T12:12:31;13.00;99.90
53802;DHT22;39709;53.334;6.534;2023-04-06T12:14:57;13.20;99.90
53802;DHT22;39709;53.334;6.534;2023-04-06T12:17:23;13.10;99.90
53802;DHT22;39709;53.334;6.534;2023-04-06T12:19:49;13.20;99.90
53802;DHT22;39709;53.334;6.534;2023-04-06T12:22:15;13.00;99.90
53802;DHT22;39709;53.334;6.534;2023-04-06T12:24:41;13.10;99.90
53802;DHT22;39709;53.334;6.534;2023-04-06T12:27:07;13.30;99.90
53802;DHT22;39709;53.334;6.534;2023-04-06T12:29:34;13.30;99.90
53802;DHT22;39709;53.334;6.534;2023-04-06T12:32:00;13.30;99.90
53802;DHT22;39709;53.334;6.534;2023-04-06T12:34:26;13.20;99.90
53802;DHT22;39709;53.334;6.534;2023-04-06T12:36:52;13.40;99.90
53802;DHT22;39709;53.334;6.534;2023-04-06T12:39:18;13.40;99.90
53802;DHT22;39709;53.334;6.534;2023-04-06T12:41:45;13.40;99.90
53802;DHT22;39709;53.334;6.534;2023-04-06T12:44:11;13.40;99.90
53802;DHT22;39709;53.334;6.534;2023-04-06T12:46:37;13.40;99.90
53802;DHT22;39709;53.334;6.534;2023-04-06T12:49:02;13.30;99.90
53802;DHT22;39709;53.334;6.534;2023-04-06T12:51:28;13.70;99.90
53802;DHT22;39709;53.334;6.534;2023-04-06T12:53:54;13.40;99.90
53802;DHT22;39709;53.334;6.534;2023-04-06T12:56:20;13.50;99.90
53802;DHT22;39709;53.334;6.534;2023-04-06T12:58:49;13.40;99.90
53802;DHT22;39709;53.334;6.534;2023-04-06T13:01:15;13.40;99.90
53802;DHT22;39709;53.334;6.534;2023-04-06T13:03:41;13.40;99.90
53802;DHT22;39709;53.334;6.534;2023-04-06T13:06:07;13.60;99.90
53802;DHT22;39709;53.334;6.534;2023-04-06T13:08:40;13.60;99.90
53802;DHT22;39709;53.334;6.534;2023-04-06T13:11:06;13.80;99.90
53802;DHT22;39709;53.334;6.534;2023-04-06T13:13:34;13.40;99.90
53802;DHT22;39709;53.334;6.534;2023-04-06T13:16:05;13.40;99.90
53802;DHT22;39709;53.334;6.534;2023-04-06T13:18:32;13.60;99.90
53802;DHT22;39709;53.334;6.534;2023-04-06T13:20:58;13.30;99.90
53802;DHT22;39709;53.334;6.534;2023-04-06T13:23:25;13.50;99.90
53802;DHT22;39709;53.334;6.534;2023-04-06T13:26:02;13.50;99.90
53802;DHT22;39709;53.334;6.534;2023-04-06T13:28:29;13.20;99.90
53802;DHT22;39709;53.334;6.534;2023-04-06T13:30:55;13.40;99.90
53802;DHT22;39709;53.334;6.534;2023-04-06T13:33:21;13.30;99.90
53802;DHT22;39709;53.334;6.534;2023-04-06T13:35:47;13.20;99.90
53802;DHT22;39709;53.334;6.534;2023-04-06T13:38:13;13.30;99.90
53802;DHT22;39709;53.334;6.534;2023-04-06T13:40:41;13.20;99.90
53802;DHT22;39709;53.334;6.534;2023-04-06T13:43:07;13.50;99.90
53802;DHT22;39709;53.334;6.534;2023-04-06T13:45:33;13.30;99.90
53802;DHT22;39709;53.334;6.534;2023-04-06T13:47:59;13.30;99.90
53802;DHT22;39709;53.334;6.534;2023-04-06T13:50:28;13.40;99.90
53802;DHT22;39709;53.334;6.534;2023-04-06T13:52:54;13.50;99.90
53802;DHT22;39709;53.334;6.534;2023-04-06T13:55:21;13.50;99.90
53802;DHT22;39709;53.334;6.534;2023-04-06T13:57:47;13.60;99.90
53802;DHT22;39709;53.334;6.534;2023-04-06T14:00:13;13.50;99.90
53802;DHT22;39709;53.334;6.534;2023-04-06T14:02:40;13.50;99.90
53802;DHT22;39709;53.334;6.534;2023-04-06T14:05:06;13.50;99.90
53802;DHT22;39709;53.334;6.534;2023-04-06T14:07:32;13.70;99.90
53802;DHT22;39709;53.334;6.534;2023-04-06T14:09:57;13.50;99.90
53802;DHT22;39709;53.334;6.534;2023-04-06T14:12:23;13.80;99.90
53802;DHT22;39709;53.334;6.534;2023-04-06T14:14:50;14.10;99.90
53802;DHT22;39709;53.334;6.534;2023-04-06T14:17:15;14.30;99.90
53802;DHT22;39709;53.334;6.534;2023-04-06T14:19:41;14.30;99.90
53802;DHT22;39709;53.334;6.534;2023-04-06T14:22:08;14.30;99.90
53802;DHT22;39709;53.334;6.534;2023-04-06T14:24:34;14.40;99.90
53802;DHT22;39709;53.334;6.534;2023-04-06T14:27:01;14.30;99.90
53802;DHT22;39709;53.334;6.534;2023-04-06T14:29:27;14.10;99.90
53802;DHT22;39709;53.334;6.534;2023-04-06T14:31:53;14.10;99.90
53802;DHT22;39709;53.334;6.534;2023-04-06T14:34:27;14.20;99.90
53802;DHT22;39709;53.334;6.534;2023-04-06T14:36:53;14.30;99.90
53802;DHT22;39709;53.334;6.534;2023-04-06T14:39:19;13.90;99.90
53802;DHT22;39709;53.334;6.534;2023-04-06T14:41:44;13.90;99.90
53802;DHT22;39709;53.334;6.534;2023-04-06T14:44:10;14.00;99.90
53802;DHT22;39709;53.334;6.534;2023-04-06T14:46:37;13.90;99.90
53802;DHT22;39709;53.334;6.534;2023-04-06T14:49:03;13.60;99.90
53802;DHT22;39709;53.334;6.534;2023-04-06T14:51:29;13.50;99.90
53802;DHT22;39709;53.334;6.534;2023-04-06T14:53:55;13.20;99.90
53802;DHT22;39709;53.334;6.534;2023-04-06T14:56:22;13.20;99.90
53802;DHT22;39709;53.334;6.534;2023-04-06T14:58:49;13.10;99.90
53802;DHT22;39709;53.334;6.534;2023-04-06T15:01:17;13.20;99.90
53802;DHT22;39709;53.334;6.534;2023-04-06T15:03:43;13.20;99.90
53802;DHT22;39709;53.334;6.534;2023-04-06T15:06:15;13.30;99.90
53802;DHT22;39709;53.334;6.534;2023-04-06T15:08:45;13.00;99.90
53802;DHT22;39709;53.334;6.534;2023-04-06T15:11:11;13.10;99.90
53802;DHT22;39709;53.334;6.534;2023-04-06T15:13:38;13.00;99.90
53802;DHT22;39709;53.334;6.534;2023-04-06T15:16:05;13.10;99.90
53802;DHT22;39709;53.334;6.534;2023-04-06T15:18:31;13.20;99.90
53802;DHT22;39709;53.334;6.534;2023-04-06T15:20:56;13.00;99.90
53802;DHT22;39709;53.334;6.534;2023-04-06T15:23:22;13.00;99.90
53802;DHT22;39709;53.334;6.534;2023-04-06T15:25:48;13.00;99.90
53802;DHT22;39709;53.334;6.534;2023-04-06T15:28:15;13.00;99.90
53802;DHT22;39709;53.334;6.534;2023-04-06T15:30:40;12.90;99.90
53802;DHT22;39709;53.334;6.534;2023-04-06T15:33:07;12.70;99.90
53802;DHT22;39709;53.334;6.534;2023-04-06T15:35:33;12.50;99.90
53802;DHT22;39709;53.334;6.534;2023-04-06T15:38:04;12.20;99.90
53802;DHT22;39709;53.334;6.534;2023-04-06T15:40:30;12.10;99.90
53802;DHT22;39709;53.334;6.534;2023-04-06T15:42:56;12.20;99.90